Time,TemperatureF,DewpointF,PressureIn,WindDirection,WindDirectionDegrees,WindSpeedMPH,WindSpeedGustMPH,Humidity,HourlyPrecipIn,Conditions,Clouds,dailyrainin,SoftwareType,DateUTC
2013-08-04 00:03:00,60.9,57.6,29.76,WNW,283,0.0,0.0,89,0.00,,,0.00,Wunderground v.1.15,2013-08-04 04:03:00,
2013-08-04 00:08:00,60.8,57.5,29.76,WNW,282,0.0,0.0,89,0.00,,,0.00,Wunderground v.1.15,2013-08-04 04:08:00,
2013-08-04 00:18:00,60.3,57.0,29.76,WNW,283,0.0,0.0,89,0.00,,,0.00,Wunderground v.1.15,2013-08-04 04:18:00,
2013-08-04 00:23:00,60.3,57.0,29.76,WNW,283,0.0,0.0,89,0.00,,,0.00,Wunderground v.1.15,2013-08-04 04:23:00,
2013-08-04 00:28:00,60.3,57.0,29.76,WNW,283,0.0,0.0,89,0.00,,,0.00,Wunderground v.1.15,2013-08-04 04:28:00,
2013-08-04 00:33:00,60.3,57.0,29.76,WNW,282,0.0,0.0,89,0.00,,,0.00,Wunderground v.1.15,2013-08-04 04:33:00,
2013-08-04 00:38:00,60.1,56.8,29.76,WNW,282,0.0,0.0,89,0.00,,,0.00,Wunderground v.1.15,2013-08-04 04:38:00,
2013-08-04 00:48:00,60.3,57.0,29.76,WSW,254,0.0,0.0,89,0.00,,,0.00,Wunderground v.1.15,2013-08-04 04:48:00,
2013-08-04 00:53:00,60.1,56.8,29.75,WSW,254,0.0,0.0,89,0.00,,,0.00,Wunderground v.1.15,2013-08-04 04:53:00,
2013-08-04 00:58:00,60.2,56.9,29.75,WSW,254,0.0,0.0,89,0.00,,,0.00,Wunderground v.1.15,2013-08-04 04:58:00,
2013-08-04 01:08:00,60.3,57.4,29.75,WSW,248,0.0,0.0,90,0.00,,,0.00,Wunderground v.1.15,2013-08-04 05:08:00,
2013-08-04 01:18:00,60.0,57.1,29.75,West,275,0.0,0.0,90,0.00,,,0.00,Wunderground v.1.15,2013-08-04 05:18:00,
2013-08-04 01:23:00,60.0,56.7,29.75,WSW,250,0.0,0.0,89,0.00,,,0.00,Wunderground v.1.15,2013-08-04 05:23:00,
2013-08-04 01:33:00,59.9,56.6,29.75,WSW,240,0.0,2.0,89,0.00,,,0.00,Wunderground v.1.15,2013-08-04 05:33:00,
2013-08-04 01:38:00,60.1,57.2,29.75,West,271,1.0,2.0,90,0.00,,,0.00,Wunderground v.1.15,2013-08-04 05:38:00,
2013-08-04 01:48:00,60.9,57.6,29.74,WSW,240,2.0,2.0,89,0.00,,,0.00,Wunderground v.1.15,2013-08-04 05:48:00,
2013-08-04 01:53:00,61.1,57.8,29.74,WSW,248,1.0,2.0,89,0.00,,,0.00,Wunderground v.1.15,2013-08-04 05:53:00,
2013-08-04 01:58:00,61.1,57.5,29.74,SW,234,1.0,3.0,88,0.00,,,0.00,Wunderground v.1.15,2013-08-04 05:58:00,
2013-08-04 02:03:00,61.1,57.8,29.74,SW,229,2.0,3.0,89,0.00,,,0.00,Wunderground v.1.15,2013-08-04 06:03:00,
2013-08-04 02:08:00,61.1,57.5,29.74,SW,234,3.0,3.0,88,0.00,,,0.00,Wunderground v.1.15,2013-08-04 06:08:00,
2013-08-04 02:18:00,61.3,57.7,29.74,WSW,246,3.0,4.0,88,0.00,,,0.00,Wunderground v.1.15,2013-08-04 06:18:00,
2013-08-04 02:23:00,61.3,57.7,29.74,WSW,253,3.0,4.0,88,0.00,,,0.00,Wunderground v.1.15,2013-08-04 06:23:00,
2013-08-04 02:33:00,61.3,57.7,29.73,WSW,248,2.0,4.0,88,0.00,,,0.00,Wunderground v.1.15,2013-08-04 06:33:00,
2013-08-04 02:38:00,61.5,57.6,29.74,West,277,2.0,2.0,87,0.00,,,0.00,Wunderground v.1.15,2013-08-04 06:38:00,
2013-08-04 02:43:00,61.3,57.7,29.74,West,261,2.0,2.0,88,0.00,,,0.00,Wunderground v.1.15,2013-08-04 06:43:00,
2013-08-04 02:53:00,61.3,57.7,29.73,West,272,2.0,4.0,88,0.00,,,0.00,Wunderground v.1.15,2013-08-04 06:53:00,
2013-08-04 03:03:00,61.2,57.6,29.73,WSW,239,3.0,3.0,88,0.00,,,0.00,Wunderground v.1.15,2013-08-04 07:03:00,
2013-08-04 03:13:00,61.6,57.7,29.73,WSW,254,3.0,3.0,87,0.00,,,0.00,Wunderground v.1.15,2013-08-04 07:13:00,
2013-08-04 03:23:00,61.3,57.4,29.74,West,266,1.0,3.0,87,0.00,,,0.00,Wunderground v.1.15,2013-08-04 07:23:00,
2013-08-04 03:28:00,61.2,57.3,29.73,West,259,1.0,2.0,87,0.00,,,0.00,Wunderground v.1.15,2013-08-04 07:28:00,
2013-08-04 03:38:00,60.7,57.1,29.73,WSW,245,0.0,2.0,88,0.00,,,0.00,Wunderground v.1.15,2013-08-04 07:38:00,
2013-08-04 03:48:00,60.1,56.8,29.74,West,276,0.0,2.0,89,0.00,,,0.00,Wunderground v.1.15,2013-08-04 07:48:00,
2013-08-04 03:58:00,59.7,56.5,29.74,WSW,250,0.0,2.0,89,0.00,,,0.00,Wunderground v.1.15,2013-08-04 07:58:00,
2013-08-04 04:08:00,59.3,56.4,29.74,WNW,286,0.0,2.0,90,0.00,,,0.00,Wunderground v.1.15,2013-08-04 08:08:00,
2013-08-04 04:18:00,59.0,56.1,29.74,West,276,0.0,2.0,90,0.00,,,0.00,Wunderground v.1.15,2013-08-04 08:18:00,
2013-08-04 04:28:00,58.7,55.8,29.74,West,264,0.0,2.0,90,0.00,,,0.00,Wunderground v.1.15,2013-08-04 08:28:00,
2013-08-04 04:38:00,58.2,55.3,29.75,West,264,0.0,2.0,90,0.00,,,0.00,Wunderground v.1.15,2013-08-04 08:38:00,
2013-08-04 04:48:00,58.4,54.2,29.75,NNW,345,0.0,2.0,86,0.00,,,0.00,Wunderground v.1.15,2013-08-04 08:48:00,
2013-08-04 04:53:00,58.3,54.4,29.75,NNW,345,0.0,2.0,87,0.00,,,0.00,Wunderground v.1.15,2013-08-04 08:53:00,
2013-08-04 05:03:00,57.8,53.6,29.76,WSW,253,0.0,2.0,86,0.00,,,0.00,Wunderground v.1.15,2013-08-04 09:03:00,
2013-08-04 05:13:00,57.3,53.1,29.76,West,275,1.0,2.0,86,0.00,,,0.00,Wunderground v.1.15,2013-08-04 09:13:00,
2013-08-04 05:18:00,56.8,52.3,29.76,West,275,1.0,1.0,85,0.00,,,0.00,Wunderground v.1.15,2013-08-04 09:18:00,
2013-08-04 05:28:00,56.8,50.0,29.76,West,276,0.0,2.0,78,0.00,,,0.00,Wunderground v.1.15,2013-08-04 09:28:00,
2013-08-04 05:33:00,57.0,50.5,29.76,West,275,0.0,2.0,79,0.00,,,0.00,Wunderground v.1.15,2013-08-04 09:33:00,
2013-08-04 05:38:00,57.0,51.6,29.76,WSW,250,0.0,2.0,82,0.00,,,0.00,Wunderground v.1.15,2013-08-04 09:38:00,
2013-08-04 05:43:00,57.3,52.8,29.76,West,276,1.0,2.0,85,0.00,,,0.00,Wunderground v.1.15,2013-08-04 09:43:00,
2013-08-04 05:48:00,57.8,54.0,29.76,West,274,1.0,2.0,87,0.00,,,0.00,Wunderground v.1.15,2013-08-04 09:48:00,
2013-08-04 05:58:00,58.5,55.3,29.76,WNW,303,1.0,1.0,89,0.00,,,0.00,Wunderground v.1.15,2013-08-04 09:58:00,
2013-08-04 06:08:00,58.7,55.2,29.76,NW,314,0.0,2.0,88,0.00,,,0.00,Wunderground v.1.15,2013-08-04 10:08:00,
2013-08-04 06:18:00,58.7,54.5,29.76,NW,314,0.0,2.0,86,0.00,,,0.00,Wunderground v.1.15,2013-08-04 10:18:00,
2013-08-04 06:23:00,58.6,54.7,29.76,NW,314,0.0,2.0,87,0.00,,,0.00,Wunderground v.1.15,2013-08-04 10:23:00,
2013-08-04 06:28:00,58.5,55.3,29.76,WNW,296,0.0,2.0,89,0.00,,,0.00,Wunderground v.1.15,2013-08-04 10:28:00,
2013-08-04 06:33:00,58.9,55.7,29.76,West,269,0.0,2.0,89,0.00,,,0.00,Wunderground v.1.15,2013-08-04 10:33:00,
2013-08-04 06:38:00,59.5,56.6,29.76,West,279,0.0,2.0,90,0.00,,,0.00,Wunderground v.1.15,2013-08-04 10:38:00,
2013-08-04 06:48:00,61.1,58.1,29.76,West,260,0.0,2.0,90,0.00,,,0.00,Wunderground v.1.15,2013-08-04 10:48:00,
2013-08-04 06:58:00,62.4,58.8,29.76,SW,225,0.0,2.0,88,0.00,,,0.00,Wunderground v.1.15,2013-08-04 10:58:00,
2013-08-04 07:03:00,63.0,59.1,29.76,WNW,290,0.0,2.0,87,0.00,,,0.00,Wunderground v.1.15,2013-08-04 11:03:00,
2013-08-04 07:13:00,64.3,60.3,29.76,SW,233,0.0,2.0,87,0.00,,,0.00,Wunderground v.1.15,2013-08-04 11:13:00,
2013-08-04 07:23:00,65.4,60.1,29.76,West,280,0.0,2.0,83,0.00,,,0.00,Wunderground v.1.15,2013-08-04 11:23:00,
2013-08-04 07:33:00,65.1,59.8,29.76,WNW,294,3.0,6.0,83,0.00,,,0.00,Wunderground v.1.15,2013-08-04 11:33:00,
2013-08-04 07:38:00,65.2,59.9,29.76,WNW,286,3.0,5.0,83,0.00,,,0.00,Wunderground v.1.15,2013-08-04 11:38:00,
2013-08-04 07:48:00,65.6,60.3,29.76,West,260,4.0,4.0,83,0.00,,,0.00,Wunderground v.1.15,2013-08-04 11:48:00,
2013-08-04 07:58:00,66.1,60.1,29.76,West,272,4.0,5.0,81,0.00,,,0.00,Wunderground v.1.15,2013-08-04 11:58:00,
2013-08-04 08:08:00,66.4,59.7,29.76,WNW,286,6.0,6.0,79,0.00,,,0.00,Wunderground v.1.15,2013-08-04 12:08:00,
2013-08-04 08:18:00,66.8,60.4,29.76,NW,306,6.0,6.0,80,0.00,,,0.00,Wunderground v.1.15,2013-08-04 12:18:00,
2013-08-04 08:23:00,67.5,60.8,29.76,West,263,4.0,6.0,79,0.00,,,0.00,Wunderground v.1.15,2013-08-04 12:23:00,
2013-08-04 08:28:00,67.9,61.1,29.76,WNW,282,2.0,4.0,79,0.00,,,0.00,Wunderground v.1.15,2013-08-04 12:28:00,
2013-08-04 08:33:00,68.1,61.3,29.76,West,273,3.0,4.0,79,0.00,,,0.00,Wunderground v.1.15,2013-08-04 12:33:00,
2013-08-04 08:38:00,68.4,60.5,29.76,WSW,253,5.0,6.0,76,0.00,,,0.00,Wunderground v.1.15,2013-08-04 12:38:00,
2013-08-04 08:43:00,68.5,60.3,29.76,West,269,6.0,6.0,75,0.00,,,0.00,Wunderground v.1.15,2013-08-04 12:43:00,
2013-08-04 08:53:00,69.0,61.1,29.76,WNW,283,6.0,11.0,76,0.00,,,0.00,Wunderground v.1.15,2013-08-04 12:53:00,
2013-08-04 09:03:00,69.0,60.7,29.76,West,267,7.0,7.0,75,0.00,,,0.00,Wunderground v.1.15,2013-08-04 13:03:00,
2013-08-04 09:13:00,69.4,61.1,29.75,WNW,287,6.0,7.0,75,0.00,,,0.00,Wunderground v.1.15,2013-08-04 13:13:00,
2013-08-04 09:23:00,69.6,60.6,29.75,WNW,282,6.0,9.0,73,0.00,,,0.00,Wunderground v.1.15,2013-08-04 13:23:00,
2013-08-04 09:33:00,70.1,61.0,29.75,WNW,289,6.0,6.0,73,0.00,,,0.00,Wunderground v.1.15,2013-08-04 13:33:00,
2013-08-04 09:43:00,70.5,61.0,29.75,WNW,298,6.0,8.0,72,0.00,,,0.00,Wunderground v.1.15,2013-08-04 13:43:00,
2013-08-04 09:53:00,70.7,61.2,29.75,SSW,213,6.0,8.0,72,0.00,,,0.00,Wunderground v.1.15,2013-08-04 13:53:00,
2013-08-04 09:58:00,71.1,61.6,29.75,WNW,292,5.0,8.0,72,0.00,,,0.00,Wunderground v.1.15,2013-08-04 13:58:00,
2013-08-04 10:03:00,71.1,60.4,29.75,WNW,290,6.0,8.0,69,0.00,,,0.00,Wunderground v.1.15,2013-08-04 14:03:00,
2013-08-04 10:08:00,71.1,61.2,29.76,West,272,6.0,6.0,71,0.00,,,0.00,Wunderground v.1.15,2013-08-04 14:08:00,
2013-08-04 10:18:00,71.6,61.7,29.75,West,265,5.0,5.0,71,0.00,,,0.00,Wunderground v.1.15,2013-08-04 14:18:00,
2013-08-04 10:28:00,71.9,61.2,29.76,WNW,286,6.0,6.0,69,0.00,,,0.00,Wunderground v.1.15,2013-08-04 14:28:00,
2013-08-04 10:38:00,72.2,61.0,29.76,West,259,4.0,4.0,68,0.00,,,0.00,Wunderground v.1.15,2013-08-04 14:38:00,
2013-08-04 10:43:00,72.7,61.5,29.76,West,275,4.0,4.0,68,0.00,,,0.00,Wunderground v.1.15,2013-08-04 14:43:00,
2013-08-04 10:53:00,72.6,61.4,29.76,WNW,302,3.0,8.0,68,0.00,,,0.00,Wunderground v.1.15,2013-08-04 14:53:00,
2013-08-04 10:58:00,72.8,60.8,29.76,SSW,210,3.0,3.0,66,0.00,,,0.00,Wunderground v.1.15,2013-08-04 14:58:00,
2013-08-04 11:08:00,72.8,59.9,29.75,WSW,238,3.0,3.0,64,0.00,,,0.00,Wunderground v.1.15,2013-08-04 15:08:00,
2013-08-04 11:13:00,73.9,60.5,29.75,ESE,116,2.0,3.0,63,0.00,,,0.00,Wunderground v.1.15,2013-08-04 15:13:00,
2013-08-04 11:23:00,73.8,60.9,29.75,NW,309,2.0,12.0,64,0.00,,,0.00,Wunderground v.1.15,2013-08-04 15:23:00,
2013-08-04 11:33:00,74.1,60.2,29.75,South,183,2.0,2.0,62,0.00,,,0.00,Wunderground v.1.15,2013-08-04 15:33:00,
2013-08-04 11:38:00,73.5,60.1,29.75,West,273,3.0,4.0,63,0.00,,,0.00,Wunderground v.1.15,2013-08-04 15:38:00,
2013-08-04 11:48:00,73.9,60.1,29.75,WNW,288,4.0,6.0,62,0.00,,,0.00,Wunderground v.1.15,2013-08-04 15:48:00,
2013-08-04 11:53:00,73.5,60.1,29.75,WNW,297,5.0,6.0,63,0.00,,,0.00,Wunderground v.1.15,2013-08-04 15:53:00,
2013-08-04 11:58:00,73.6,62.8,29.75,West,271,6.0,6.0,69,0.00,,,0.00,Wunderground v.1.15,2013-08-04 15:58:00,
2013-08-04 12:08:00,73.3,60.8,29.74,West,263,5.0,5.0,65,0.00,,,0.00,Wunderground v.1.15,2013-08-04 16:08:00,
2013-08-04 12:18:00,72.7,59.4,29.75,WNW,282,5.0,5.0,63,0.00,,,0.00,Wunderground v.1.15,2013-08-04 16:18:00,
2013-08-04 12:28:00,73.7,61.2,29.74,West,268,2.0,6.0,65,0.00,,,0.00,Wunderground v.1.15,2013-08-04 16:28:00,
2013-08-04 12:38:00,74.7,59.9,29.74,West,271,3.0,7.0,60,0.00,,,0.00,Wunderground v.1.15,2013-08-04 16:38:00,
2013-08-04 12:43:00,74.4,60.5,29.74,SW,223,3.0,7.0,62,0.00,,,0.00,Wunderground v.1.15,2013-08-04 16:43:00,
2013-08-04 12:48:00,73.9,59.6,29.74,WSW,253,5.0,5.0,61,0.00,,,0.00,Wunderground v.1.15,2013-08-04 16:48:00,
2013-08-04 12:53:00,74.0,58.3,29.74,SSW,205,6.0,6.0,58,0.00,,,0.00,Wunderground v.1.15,2013-08-04 16:53:00,
2013-08-04 13:03:00,73.6,60.2,29.74,WNW,293,6.0,9.0,63,0.00,,,0.00,Wunderground v.1.15,2013-08-04 17:03:00,
2013-08-04 13:08:00,74.0,62.8,29.74,West,268,5.0,5.0,68,0.00,,,0.00,Wunderground v.1.15,2013-08-04 17:08:00,
2013-08-04 13:13:00,74.8,60.4,29.73,WSW,242,4.0,5.0,61,0.00,,,0.00,Wunderground v.1.15,2013-08-04 17:13:00,
2013-08-04 13:23:00,75.4,60.5,29.73,SW,222,5.0,7.0,60,0.00,,,0.00,Wunderground v.1.15,2013-08-04 17:23:00,
2013-08-04 13:28:00,75.9,60.1,29.73,WSW,247,4.0,4.0,58,0.00,,,0.00,Wunderground v.1.15,2013-08-04 17:28:00,
2013-08-04 13:33:00,75.7,59.4,29.72,SW,234,5.0,5.0,57,0.00,,,0.00,Wunderground v.1.15,2013-08-04 17:33:00,
2013-08-04 13:43:00,76.3,61.4,29.72,WSW,240,3.0,5.0,60,0.00,,,0.00,Wunderground v.1.15,2013-08-04 17:43:00,
2013-08-04 13:48:00,76.2,58.9,29.72,SW,218,4.0,4.0,55,0.00,,,0.00,Wunderground v.1.15,2013-08-04 17:48:00,
2013-08-04 13:58:00,76.3,59.9,29.72,South,190,5.0,5.0,57,0.00,,,0.00,Wunderground v.1.15,2013-08-04 17:58:00,
2013-08-04 14:03:00,76.6,58.7,29.72,WSW,253,4.0,5.0,54,0.00,,,0.00,Wunderground v.1.15,2013-08-04 18:03:00,
2013-08-04 14:13:00,76.8,59.4,29.71,South,190,4.0,6.0,55,0.00,,,0.00,Wunderground v.1.15,2013-08-04 18:13:00,
2013-08-04 14:18:00,76.6,59.7,29.71,WSW,254,4.0,7.0,56,0.00,,,0.00,Wunderground v.1.15,2013-08-04 18:18:00,
2013-08-04 14:28:00,76.8,57.8,29.71,SSW,211,5.0,5.0,52,0.00,,,0.00,Wunderground v.1.15,2013-08-04 18:28:00,
2013-08-04 14:33:00,76.9,60.0,29.71,WSW,245,5.0,11.0,56,0.00,,,0.00,Wunderground v.1.15,2013-08-04 18:33:00,
2013-08-04 14:43:00,76.2,57.8,29.71,West,262,7.0,8.0,53,0.00,,,0.00,Wunderground v.1.15,2013-08-04 18:43:00,
2013-08-04 14:53:00,76.2,57.8,29.71,SE,144,4.0,5.0,53,0.00,,,0.00,Wunderground v.1.15,2013-08-04 18:53:00,
2013-08-04 15:03:00,76.4,58.0,29.71,SSW,210,3.0,4.0,53,0.00,,,0.00,Wunderground v.1.15,2013-08-04 19:03:00,
2013-08-04 15:13:00,76.8,58.4,29.71,SSW,207,4.0,5.0,53,0.00,,,0.00,Wunderground v.1.15,2013-08-04 19:13:00,
2013-08-04 15:23:00,76.2,61.8,29.70,SSE,151,4.0,9.0,61,0.00,,,0.00,Wunderground v.1.15,2013-08-04 19:23:00,
2013-08-04 15:28:00,75.6,61.2,29.70,South,174,7.0,7.0,61,0.00,,,0.00,Wunderground v.1.15,2013-08-04 19:28:00,
2013-08-04 15:38:00,74.8,61.4,29.71,South,180,6.0,6.0,63,0.00,,,0.00,Wunderground v.1.15,2013-08-04 19:38:00,
2013-08-04 15:43:00,74.6,61.6,29.71,South,171,5.0,6.0,64,0.00,,,0.00,Wunderground v.1.15,2013-08-04 19:43:00,
2013-08-04 15:48:00,74.0,61.0,29.71,South,171,5.0,6.0,64,0.00,,,0.00,Wunderground v.1.15,2013-08-04 19:48:00,
2013-08-04 15:58:00,73.2,62.0,29.71,SE,136,8.0,8.0,68,0.00,,,0.00,Wunderground v.1.15,2013-08-04 19:58:00,
2013-08-04 16:08:00,73.5,61.4,29.71,SSE,155,8.0,13.0,66,0.00,,,0.00,Wunderground v.1.15,2013-08-04 20:08:00,
2013-08-04 16:18:00,72.8,62.0,29.71,South,190,9.0,9.0,69,0.00,,,0.00,Wunderground v.1.15,2013-08-04 20:18:00,
2013-08-04 16:23:00,71.9,62.0,29.73,South,170,6.0,9.0,71,0.00,,,0.00,Wunderground v.1.15,2013-08-04 20:23:00,
2013-08-04 16:28:00,71.1,59.6,29.73,SW,234,6.0,8.0,67,0.00,,,0.00,Wunderground v.1.15,2013-08-04 20:28:00,
2013-08-04 16:38:00,69.7,56.5,29.74,West,272,7.0,7.0,63,0.00,,,0.00,Wunderground v.1.15,2013-08-04 20:38:00,
2013-08-04 16:48:00,67.9,57.4,29.75,WNW,282,7.0,11.0,69,0.00,,,0.00,Wunderground v.1.15,2013-08-04 20:48:00,
2013-08-04 16:58:00,66.2,58.0,29.75,SSW,207,4.0,4.0,75,0.00,,,0.00,Wunderground v.1.15,2013-08-04 20:58:00,
2013-08-04 17:03:00,65.6,58.2,29.75,South,186,2.0,4.0,77,0.00,,,0.00,Wunderground v.1.15,2013-08-04 21:03:00,
2013-08-04 17:13:00,64.5,58.9,29.75,SW,225,2.0,3.0,82,0.00,,,0.00,Wunderground v.1.15,2013-08-04 21:13:00,
2013-08-04 17:23:00,63.6,59.0,29.76,West,267,4.0,5.0,85,0.00,,,0.01,Wunderground v.1.15,2013-08-04 21:23:00,
2013-08-04 17:33:00,63.0,59.1,29.76,SW,229,2.0,4.0,87,0.07,,,0.02,Wunderground v.1.15,2013-08-04 21:33:00,
2013-08-04 17:38:00,62.6,59.0,29.76,SSW,198,1.0,3.0,88,0.11,,,0.03,Wunderground v.1.15,2013-08-04 21:38:00,
2013-08-04 17:48:00,62.1,58.8,29.76,SSW,196,1.0,1.0,89,0.14,,,0.06,Wunderground v.1.15,2013-08-04 21:48:00,
2013-08-04 17:53:00,62.0,58.7,29.74,SSE,147,2.0,2.0,89,0.08,,,0.06,Wunderground v.1.15,2013-08-04 21:53:00,
2013-08-04 17:58:00,62.0,58.4,29.74,SSW,192,2.0,2.0,88,0.06,,,0.07,Wunderground v.1.15,2013-08-04 21:58:00,
2013-08-04 18:08:00,63.1,59.5,29.75,SSW,195,1.0,1.0,88,0.05,,,0.07,Wunderground v.1.15,2013-08-04 22:08:00,
2013-08-04 18:18:00,64.3,60.7,29.74,WSW,257,2.0,3.0,88,0.00,,,0.07,Wunderground v.1.15,2013-08-04 22:18:00,
2013-08-04 18:23:00,64.3,61.0,29.74,West,268,4.0,7.0,89,0.00,,,0.07,Wunderground v.1.15,2013-08-04 22:23:00,
2013-08-04 18:28:00,64.0,60.7,29.74,West,264,6.0,6.0,89,0.00,,,0.07,Wunderground v.1.15,2013-08-04 22:28:00,
2013-08-04 18:38:00,63.6,60.3,29.75,SW,236,4.0,4.0,89,0.00,,,0.07,Wunderground v.1.15,2013-08-04 22:38:00,
2013-08-04 18:43:00,63.7,60.4,29.74,West,275,3.0,4.0,89,0.00,,,0.07,Wunderground v.1.15,2013-08-04 22:43:00,
2013-08-04 18:53:00,63.9,60.6,29.75,West,272,3.0,3.0,89,0.00,,,0.07,Wunderground v.1.15,2013-08-04 22:53:00,
2013-08-04 19:03:00,63.5,60.2,29.75,WSW,253,3.0,4.0,89,0.00,,,0.07,Wunderground v.1.15,2013-08-04 23:03:00,
2013-08-04 19:13:00,63.2,59.9,29.75,WSW,240,2.0,2.0,89,0.00,,,0.07,Wunderground v.1.15,2013-08-04 23:13:00,
2013-08-04 19:23:00,63.5,60.2,29.76,WSW,245,2.0,5.0,89,0.00,,,0.07,Wunderground v.1.15,2013-08-04 23:23:00,
2013-08-04 19:28:00,63.5,60.2,29.76,West,259,2.0,2.0,89,0.00,,,0.07,Wunderground v.1.15,2013-08-04 23:28:00,
2013-08-04 19:33:00,63.3,60.0,29.76,West,273,2.0,2.0,89,0.00,,,0.07,Wunderground v.1.15,2013-08-04 23:33:00,
2013-08-04 19:43:00,62.9,59.6,29.76,WSW,240,1.0,2.0,89,0.00,,,0.07,Wunderground v.1.15,2013-08-04 23:43:00,
2013-08-04 19:53:00,62.4,59.1,29.76,WSW,250,0.0,2.0,89,0.00,,,0.07,Wunderground v.1.15,2013-08-04 23:53:00,
2013-08-04 19:58:00,62.2,58.9,29.76,WSW,252,0.0,2.0,89,0.00,,,0.07,Wunderground v.1.15,2013-08-04 23:58:00,
2013-08-04 20:03:00,62.1,58.5,29.77,West,269,1.0,2.0,88,0.00,,,0.07,Wunderground v.1.15,2013-08-05 00:03:00,
2013-08-04 20:08:00,62.0,58.4,29.77,WSW,244,1.0,2.0,88,0.00,,,0.07,Wunderground v.1.15,2013-08-05 00:08:00,
2013-08-04 20:18:00,61.9,58.0,29.78,WSW,240,0.0,2.0,87,0.00,,,0.07,Wunderground v.1.15,2013-08-05 00:18:00,
2013-08-04 20:28:00,61.9,58.3,29.78,West,276,1.0,1.0,88,0.00,,,0.07,Wunderground v.1.15,2013-08-05 00:28:00,
2013-08-04 20:38:00,61.7,58.1,29.78,WSW,250,1.0,1.0,88,0.00,,,0.07,Wunderground v.1.15,2013-08-05 00:38:00,
2013-08-04 20:43:00,61.5,57.6,29.79,WSW,256,1.0,2.0,87,0.00,,,0.07,Wunderground v.1.15,2013-08-05 00:43:00,
2013-08-04 20:53:00,61.3,57.4,29.79,WSW,242,0.0,2.0,87,0.00,,,0.07,Wunderground v.1.15,2013-08-05 00:53:00,
2013-08-04 21:03:00,61.3,57.4,29.79,WSW,256,0.0,2.0,87,0.00,,,0.07,Wunderground v.1.15,2013-08-05 01:03:00,
2013-08-04 21:08:00,61.2,57.3,29.79,WSW,256,0.0,2.0,87,0.00,,,0.07,Wunderground v.1.15,2013-08-05 01:08:00,
2013-08-04 21:13:00,61.1,57.2,29.79,WSW,256,0.0,2.0,87,0.00,,,0.07,Wunderground v.1.15,2013-08-05 01:13:00,
2013-08-04 21:23:00,60.5,56.3,29.79,WSW,256,0.0,2.0,86,0.00,,,0.07,Wunderground v.1.15,2013-08-05 01:23:00,
2013-08-04 21:28:00,60.7,55.8,29.78,WSW,254,0.0,2.0,84,0.00,,,0.07,Wunderground v.1.15,2013-08-05 01:28:00,
2013-08-04 21:33:00,60.7,56.5,29.78,WSW,256,1.0,2.0,86,0.00,,,0.07,Wunderground v.1.15,2013-08-05 01:33:00,
2013-08-04 21:43:00,60.7,57.1,29.78,West,267,2.0,2.0,88,0.00,,,0.07,Wunderground v.1.15,2013-08-05 01:43:00,
2013-08-04 21:48:00,60.7,57.4,29.78,WSW,258,3.0,3.0,89,0.00,,,0.07,Wunderground v.1.15,2013-08-05 01:48:00,
2013-08-04 21:58:00,60.9,57.9,29.78,SW,236,5.0,6.0,90,0.00,,,0.07,Wunderground v.1.15,2013-08-05 01:58:00,
2013-08-04 22:08:00,61.3,57.7,29.78,West,268,6.0,10.0,88,0.00,,,0.07,Wunderground v.1.15,2013-08-05 02:08:00,
2013-08-04 22:18:00,61.1,57.5,29.78,WNW,296,6.0,7.0,88,0.00,,,0.07,Wunderground v.1.15,2013-08-05 02:18:00,
2013-08-04 22:28:00,61.1,57.2,29.79,WNW,286,5.0,5.0,87,0.00,,,0.07,Wunderground v.1.15,2013-08-05 02:28:00,
2013-08-04 22:38:00,60.4,56.5,29.79,West,277,4.0,4.0,87,0.00,,,0.07,Wunderground v.1.15,2013-08-05 02:38:00,
2013-08-04 22:43:00,60.4,56.5,29.79,West,274,5.0,5.0,87,0.00,,,0.07,Wunderground v.1.15,2013-08-05 02:43:00,
2013-08-04 22:48:00,60.2,56.3,29.79,West,275,5.0,5.0,87,0.00,,,0.07,Wunderground v.1.15,2013-08-05 02:48:00,
2013-08-04 22:58:00,60.0,55.8,29.79,West,280,5.0,5.0,86,0.00,,,0.07,Wunderground v.1.15,2013-08-05 02:58:00,
2013-08-04 23:03:00,59.8,55.6,29.79,WNW,287,4.0,5.0,86,0.00,,,0.07,Wunderground v.1.15,2013-08-05 03:03:00,
2013-08-04 23:13:00,59.3,55.4,29.79,West,276,3.0,4.0,87,0.00,,,0.07,Wunderground v.1.15,2013-08-05 03:13:00,
2013-08-04 23:23:00,59.1,54.9,29.79,West,272,4.0,4.0,86,0.00,,,0.07,Wunderground v.1.15,2013-08-05 03:23:00,
2013-08-04 23:33:00,59.2,54.7,29.79,West,267,5.0,6.0,85,0.00,,,0.07,Wunderground v.1.15,2013-08-05 03:33:00,
2013-08-04 23:38:00,59.1,54.6,29.79,West,269,4.0,4.0,85,0.00,,,0.07,Wunderground v.1.15,2013-08-05 03:38:00,
2013-08-04 23:48:00,59.4,54.9,29.79,West,281,6.0,6.0,85,0.00,,,0.07,Wunderground v.1.15,2013-08-05 03:48:00,
2013-08-04 23:58:00,59.6,55.1,29.79,WSW,242,6.0,7.0,85,0.00,,,0.00,Wunderground v.1.15,2013-08-05 03:58:00,